sensor_id;sensor_type;location;lat;lon;timestamp;pressure;altitude;pressure_sealevel;temperature;humidity
15634;BME280;14654;48.898;8.308;2023-09-18T00:02:17;99508.81;;;19.87;100.00
15634;BME280;14654;48.898;8.308;2023-09-18T00:04:42;99499.16;;;19.87;100.00
15634;BME280;14654;48.898;8.308;2023-09-18T00:07:07;99500.94;;;19.87;100.00
15634;BME280;14654;48.898;8.308;2023-09-18T00:09:33;99494.91;;;19.85;100.00
15634;BME280;14654;48.898;8.308;2023-09-18T00:11:58;99491.41;;;19.84;100.00
15634;BME280;14654;48.898;8.308;2023-09-18T00:14:23;99482.59;;;19.85;100.00
15634;BME280;14654;48.898;8.308;2023-09-18T00:16:49;99480.75;;;19.87;100.00
15634;BME280;14654;48.898;8.308;2023-09-18T00:19:14;99483.22;;;19.90;100.00
15634;BME280;14654;48.898;8.308;2023-09-18T00:21:39;99486.59;;;19.92;100.00
15634;BME280;14654;48.898;8.308;2023-09-18T00:24:05;99491.56;;;19.97;100.00
15634;BME280;14654;48.898;8.308;2023-09-18T00:26:33;99494.06;;;19.99;100.00
15634;BME280;14654;48.898;8.308;2023-09-18T00:28:58;99483.69;;;19.97;100.00
15634;BME280;14654;48.898;8.308;2023-09-18T00:31:23;99480.13;;;19.98;100.00
15634;BME280;14654;48.898;8.308;2023-09-18T00:33:49;99480.88;;;20.00;100.00
15634;BME280;14654;48.898;8.308;2023-09-18T00:36:14;99477.22;;;20.03;100.00
15634;BME280;14654;48.898;8.308;2023-09-18T00:38:39;99484.97;;;20.04;100.00
15634;BME280;14654;48.898;8.308;2023-09-18T00:41:05;99478.13;;;20.02;100.00
15634;BME280;14654;48.898;8.308;2023-09-18T00:43:31;99489.50;;;20.02;100.00
15634;BME280;14654;48.898;8.308;2023-09-18T00:45:56;99495.78;;;20.00;100.00
15634;BME280;14654;48.898;8.308;2023-09-18T00:48:22;99489.75;;;19.98;100.00
15634;BME280;14654;48.898;8.308;2023-09-18T00:50:48;99501.13;;;19.98;100.00
15634;BME280;14654;48.898;8.308;2023-09-18T00:53:17;99497.56;;;19.99;100.00
15634;BME280;14654;48.898;8.308;2023-09-18T00:55:43;99498.31;;;20.01;100.00
15634;BME280;14654;48.898;8.308;2023-09-18T00:58:09;99502.53;;;20.04;100.00
15634;BME280;14654;48.898;8.308;2023-09-18T01:00:35;99512.75;;;20.08;100.00
15634;BME280;14654;48.898;8.308;2023-09-18T01:03:01;99514.91;;;20.16;100.00
15634;BME280;14654;48.898;8.308;2023-09-18T01:05:27;99514.44;;;20.24;100.00
15634;BME280;14654;48.898;8.308;2023-09-18T01:07:52;99519.22;;;20.32;100.00
15634;BME280;14654;48.898;8.308;2023-09-18T01:10:18;99521.38;;;20.39;100.00
15634;BME280;14654;48.898;8.308;2023-09-18T01:15:33;99528.28;;;20.55;100.00
15634;BME280;14654;48.898;8.308;2023-09-18T01:18:00;99542.75;;;20.62;100.00
15634;BME280;14654;48.898;8.308;2023-09-18T01:20:26;99549.41;;;20.68;100.00
15634;BME280;14654;48.898;8.308;2023-09-18T01:22:52;99539.41;;;20.73;100.00
15634;BME280;14654;48.898;8.308;2023-09-18T01:25:18;99533.94;;;20.78;100.00
15634;BME280;14654;48.898;8.308;2023-09-18T01:27:43;99538.88;;;20.82;100.00
15634;BME280;14654;48.898;8.308;2023-09-18T01:30:09;99542.16;;;20.86;100.00
15634;BME280;14654;48.898;8.308;2023-09-18T01:32:35;99523.56;;;20.89;100.00
15634;BME280;14654;48.898;8.308;2023-09-18T01:35:02;99533.03;;;20.92;100.00
15634;BME280;14654;48.898;8.308;2023-09-18T01:37:31;99532.94;;;20.93;100.00
15634;BME280;14654;48.898;8.308;2023-09-18T01:39:57;99534.63;;;20.94;100.00
15634;BME280;14654;48.898;8.308;2023-09-18T01:42:25;99535.47;;;20.95;100.00
15634;BME280;14654;48.898;8.308;2023-09-18T01:44:52;99546.81;;;20.95;100.00
15634;BME280;14654;48.898;8.308;2023-09-18T01:47:19;99558.94;;;20.98;100.00
15634;BME280;14654;48.898;8.308;2023-09-18T01:49:46;99565.78;;;21.00;100.00
15634;BME280;14654;48.898;8.308;2023-09-18T01:52:11;99576.13;;;21.04;100.00
15634;BME280;14654;48.898;8.308;2023-09-18T01:54:37;99583.06;;;21.05;100.00
15634;BME280;14654;48.898;8.308;2023-09-18T01:57:03;99594.34;;;21.07;100.00
15634;BME280;14654;48.898;8.308;2023-09-18T01:59:29;99590.84;;;21.06;100.00
15634;BME280;14654;48.898;8.308;2023-09-18T02:01:54;99601.28;;;21.08;100.00
15634;BME280;14654;48.898;8.308;2023-09-18T02:04:20;99608.25;;;21.09;100.00
15634;BME280;14654;48.898;8.308;2023-09-18T02:06:47;99628.44;;;21.08;100.00
15634;BME280;14654;48.898;8.308;2023-09-18T02:09:13;99638.00;;;21.09;100.00
15634;BME280;14654;48.898;8.308;2023-09-18T02:11:41;99617.84;;;21.10;100.00
15634;BME280;14654;48.898;8.308;2023-09-18T02:14:07;99613.59;;;21.07;100.00
15634;BME280;14654;48.898;8.308;2023-09-18T02:16:33;99604.94;;;21.05;100.00
15634;BME280;14654;48.898;8.308;2023-09-18T02:18:59;99600.63;;;21.04;100.00
15634;BME280;14654;48.898;8.308;2023-09-18T02:21:25;99594.53;;;21.04;100.00
15634;BME280;14654;48.898;8.308;2023-09-18T02:23:52;99572.75;;;21.01;100.00
15634;BME280;14654;48.898;8.308;2023-09-18T02:26:18;99595.66;;;20.99;100.00
15634;BME280;14654;48.898;8.308;2023-09-18T02:28:44;99575.66;;;20.97;100.00
15634;BME280;14654;48.898;8.308;2023-09-18T02:31:09;99574.91;;;20.95;100.00
15634;BME280;14654;48.898;8.308;2023-09-18T02:33:35;99562.59;;;20.95;100.00
15634;BME280;14654;48.898;8.308;2023-09-18T02:36:00;99554.72;;;20.95;100.00
15634;BME280;14654;48.898;8.308;2023-09-18T02:38:26;99548.50;;;20.96;100.00
15634;BME280;14654;48.898;8.308;2023-09-18T02:40:51;99547.56;;;20.97;100.00
15634;BME280;14654;48.898;8.308;2023-09-18T02:43:18;99529.06;;;20.99;100.00
15634;BME280;14654;48.898;8.308;2023-09-18T02:45:43;99544.75;;;21.00;100.00
15634;BME280;14654;48.898;8.308;2023-09-18T02:48:10;99546.44;;;21.01;100.00
15634;BME280;14654;48.898;8.308;2023-09-18T02:50:36;99530.75;;;21.00;100.00
15634;BME280;14654;48.898;8.308;2023-09-18T02:53:01;99534.34;;;20.99;100.00
15634;BME280;14654;48.898;8.308;2023-09-18T02:55:26;99552.06;;;20.95;100.00
15634;BME280;14654;48.898;8.308;2023-09-18T02:57:52;99564.69;;;20.90;100.00
15634;BME280;14654;48.898;8.308;2023-09-18T03:00:17;99572.88;;;20.85;100.00
15634;BME280;14654;48.898;8.308;2023-09-18T03:02:42;99568.66;;;20.83;100.00
15634;BME280;14654;48.898;8.308;2023-09-18T03:05:08;99561.81;;;20.80;100.00
15634;BME280;14654;48.898;8.308;2023-09-18T03:07:34;99560.31;;;20.76;100.00
15634;BME280;14654;48.898;8.308;2023-09-18T03:09:59;99577.88;;;20.76;100.00
15634;BME280;14654;48.898;8.308;2023-09-18T03:12:24;99587.59;;;20.74;100.00
15634;BME280;14654;48.898;8.308;2023-09-18T03:14:49;99606.00;;;20.74;100.00
15634;BME280;14654;48.898;8.308;2023-09-18T03:17:15;99615.78;;;20.71;100.00
15634;BME280;14654;48.898;8.308;2023-09-18T03:19:40;99662.16;;;20.73;100.00
15634;BME280;14654;48.898;8.308;2023-09-18T03:22:06;99682.38;;;20.72;100.00
15634;BME280;14654;48.898;8.308;2023-09-18T03:24:31;99680.56;;;20.73;100.00
15634;BME280;14654;48.898;8.308;2023-09-18T03:26:56;99683.31;;;20.71;100.00
15634;BME280;14654;48.898;8.308;2023-09-18T03:29:21;99702.72;;;20.68;100.00
15634;BME280;14654;48.898;8.308;2023-09-18T03:31:47;99719.34;;;20.69;100.00
15634;BME280;14654;48.898;8.308;2023-09-18T03:34:12;99725.38;;;20.71;100.00
15634;BME280;14654;48.898;8.308;2023-09-18T03:36:38;99729.78;;;20.70;100.00
15634;BME280;14654;48.898;8.308;2023-09-18T03:39:04;99739.34;;;20.71;100.00
15634;BME280;14654;48.898;8.308;2023-09-18T03:41:30;99733.25;;;20.71;100.00
15634;BME280;14654;48.898;8.308;2023-09-18T03:44:02;99727.78;;;20.74;100.00
15634;BME280;14654;48.898;8.308;2023-09-18T03:46:27;99729.41;;;20.62;100.00
15634;BME280;14654;48.898;8.308;2023-09-18T03:48:52;99695.00;;;20.51;100.00
15634;BME280;14654;48.898;8.308;2023-09-18T03:51:18;99664.22;;;20.38;100.00
15634;BME280;14654;48.898;8.308;2023-09-18T03:53:44;99670.97;;;20.28;100.00
15634;BME280;14654;48.898;8.308;2023-09-18T03:56:09;99655.47;;;20.23;100.00
15634;BME280;14654;48.898;8.308;2023-09-18T03:58:35;99637.44;;;20.17;100.00
15634;BME280;14654;48.898;8.308;2023-09-18T04:01:01;99618.41;;;20.14;100.00
15634;BME280;14654;48.898;8.308;2023-09-18T04:03:26;99596.44;;;20.15;100.00
15634;BME280;14654;48.898;8.308;2023-09-18T04:05:51;99574.56;;;20.14;100.00
15634;BME280;14654;48.898;8.308;2023-09-18T04:08:17;99534.41;;;20.12;100.00
15634;BME280;14654;48.898;8.308;2023-09-18T04:10:42;99519.63;;;20.11;100.00
15634;BME280;14654;48.898;8.308;2023-09-18T04:13:09;99489.13;;;20.08;100.00
15634;BME280;14654;48.898;8.308;2023-09-18T04:15:34;99478.72;;;20.07;100.00
15634;BME280;14654;48.898;8.308;2023-09-18T04:18:05;99470.84;;;20.07;100.00
15634;BME280;14654;48.898;8.308;2023-09-18T04:20:31;99466.41;;;20.07;100.00
15634;BME280;14654;48.898;8.308;2023-09-18T04:25:44;99448.97;;;20.06;100.00
15634;BME280;14654;48.898;8.308;2023-09-18T04:28:09;99447.28;;;20.05;100.00
15634;BME280;14654;48.898;8.308;2023-09-18T04:30:34;99443.06;;;20.03;100.00
15634;BME280;14654;48.898;8.308;2023-09-18T04:33:00;99442.22;;;20.02;100.00
15634;BME280;14654;48.898;8.308;2023-09-18T04:35:25;99430.13;;;20.00;100.00
15634;BME280;14654;48.898;8.308;2023-09-18T04:37:55;99420.53;;;19.99;100.00
15634;BME280;14654;48.898;8.308;2023-09-18T04:40:21;99423.19;;;19.99;100.00
15634;BME280;14654;48.898;8.308;2023-09-18T04:42:49;99429.38;;;19.98;100.00
15634;BME280;14654;48.898;8.308;2023-09-18T04:45:14;99431.16;;;19.97;100.00
15634;BME280;14654;48.898;8.308;2023-09-18T04:47:41;99459.19;;;19.97;100.00
15634;BME280;14654;48.898;8.308;2023-09-18T04:50:06;99460.16;;;19.95;100.00
15634;BME280;14654;48.898;8.308;2023-09-18T04:52:35;99449.66;;;19.95;100.00
15634;BME280;14654;48.898;8.308;2023-09-18T04:55:00;99447.97;;;19.94;100.00
15634;BME280;14654;48.898;8.308;2023-09-18T04:57:26;99449.72;;;19.94;100.00
15634;BME280;14654;48.898;8.308;2023-09-18T04:59:51;99453.38;;;19.91;100.00
15634;BME280;14654;48.898;8.308;2023-09-18T05:02:17;99460.41;;;19.91;100.00
15634;BME280;14654;48.898;8.308;2023-09-18T05:04:42;99463.97;;;19.90;100.00
15634;BME280;14654;48.898;8.308;2023-09-18T05:07:08;99464.06;;;19.88;100.00
15634;BME280;14654;48.898;8.308;2023-09-18T05:09:33;99455.38;;;19.88;100.00
15634;BME280;14654;48.898;8.308;2023-09-18T05:11:59;99458.97;;;19.85;100.00
15634;BME280;14654;48.898;8.308;2023-09-18T05:14:25;99455.41;;;19.86;100.00
15634;BME280;14654;48.898;8.308;2023-09-18T05:16:50;99461.56;;;19.87;100.00
15634;BME280;14654;48.898;8.308;2023-09-18T05:19:15;99469.44;;;19.87;100.00
15634;BME280;14654;48.898;8.308;2023-09-18T05:21:41;99482.47;;;19.88;100.00
15634;BME280;14654;48.898;8.308;2023-09-18T05:24:07;99480.59;;;19.90;100.00
15634;BME280;14654;48.898;8.308;2023-09-18T05:26:33;99496.22;;;19.92;100.00
15634;BME280;14654;48.898;8.308;2023-09-18T05:28:59;99511.91;;;19.93;100.00
15634;BME280;14654;48.898;8.308;2023-09-18T05:31:24;99500.38;;;19.96;100.00
15634;BME280;14654;48.898;8.308;2023-09-18T05:33:49;99509.94;;;19.97;100.00
15634;BME280;14654;48.898;8.308;2023-09-18T05:36:15;99510.69;;;19.99;100.00
15634;BME280;14654;48.898;8.308;2023-09-18T05:38:41;99511.53;;;20.00;100.00
15634;BME280;14654;48.898;8.308;2023-09-18T05:41:07;99515.00;;;20.00;100.00
15634;BME280;14654;48.898;8.308;2023-09-18T05:43:32;99514.91;;;20.02;100.00
15634;BME280;14654;48.898;8.308;2023-09-18T05:45:57;99525.22;;;20.05;100.00
15634;BME280;14654;48.898;8.308;2023-09-18T05:48:23;99532.06;;;20.07;100.00
15634;BME280;14654;48.898;8.308;2023-09-18T05:50:48;99529.38;;;20.09;100.00
15634;BME280;14654;48.898;8.308;2023-09-18T05:53:14;99542.28;;;20.12;100.00
15634;BME280;14654;48.898;8.308;2023-09-18T05:55:39;99546.53;;;20.15;100.00
15634;BME280;14654;48.898;8.308;2023-09-18T05:58:04;99547.28;;;20.17;100.00
15634;BME280;14654;48.898;8.308;2023-09-18T06:00:32;99551.59;;;20.18;100.00
15634;BME280;14654;48.898;8.308;2023-09-18T06:02:58;99561.91;;;20.21;100.00
15634;BME280;14654;48.898;8.308;2023-09-18T06:05:24;99568.84;;;20.22;100.00
15634;BME280;14654;48.898;8.308;2023-09-18T06:07:50;99577.59;;;20.22;100.00
15634;BME280;14654;48.898;8.308;2023-09-18T06:10:17;99588.84;;;20.24;100.00
15634;BME280;14654;48.898;8.308;2023-09-18T06:12:43;99580.03;;;20.25;100.00
15634;BME280;14654;48.898;8.308;2023-09-18T06:15:09;99569.53;;;20.25;100.00
15634;BME280;14654;48.898;8.308;2023-09-18T06:17:38;99573.00;;;20.26;100.00
15634;BME280;14654;48.898;8.308;2023-09-18T06:20:05;99577.41;;;20.25;100.00
15634;BME280;14654;48.898;8.308;2023-09-18T06:22:33;99574.78;;;20.25;100.00
15634;BME280;14654;48.898;8.308;2023-09-18T06:24:58;99578.13;;;20.28;100.00
15634;BME280;14654;48.898;8.308;2023-09-18T06:27:23;99581.63;;;20.28;100.00
15634;BME280;14654;48.898;8.308;2023-09-18T06:29:48;99585.09;;;20.29;100.00
15634;BME280;14654;48.898;8.308;2023-09-18T06:32:14;99585.94;;;20.29;100.00
15634;BME280;14654;48.898;8.308;2023-09-18T06:34:39;99589.41;;;20.30;100.00
15634;BME280;14654;48.898;8.308;2023-09-18T06:37:08;99599.91;;;20.30;100.00
15634;BME280;14654;48.898;8.308;2023-09-18T06:39:33;99610.53;;;20.28;100.00
15634;BME280;14654;48.898;8.308;2023-09-18T06:41:58;99628.06;;;20.28;100.00
15634;BME280;14654;48.898;8.308;2023-09-18T06:44:23;99633.31;;;20.28;100.00
15634;BME280;14654;48.898;8.308;2023-09-18T06:46:49;99630.69;;;20.28;100.00
15634;BME280;14654;48.898;8.308;2023-09-18T06:49:14;99639.31;;;20.30;100.00
15634;BME280;14654;48.898;8.308;2023-09-18T06:51:39;99634.94;;;20.30;100.00
15634;BME280;14654;48.898;8.308;2023-09-18T06:54:05;99646.28;;;20.31;100.00
15634;BME280;14654;48.898;8.308;2023-09-18T06:56:30;99642.63;;;20.33;100.00
15634;BME280;14654;48.898;8.308;2023-09-18T06:58:55;99646.00;;;20.35;100.00
15634;BME280;14654;48.898;8.308;2023-09-18T07:01:22;99640.66;;;20.37;100.00
15634;BME280;14654;48.898;8.308;2023-09-18T07:03:49;99643.13;;;20.40;100.00
15634;BME280;14654;48.898;8.308;2023-09-18T07:06:15;99641.22;;;20.42;100.00
15634;BME280;14654;48.898;8.308;2023-09-18T07:08:47;99639.16;;;20.47;100.00
15634;BME280;14654;48.898;8.308;2023-09-18T07:11:14;99638.78;;;20.53;100.00
15634;BME280;14654;48.898;8.308;2023-09-18T07:13:39;99643.88;;;20.56;100.00
15634;BME280;14654;48.898;8.308;2023-09-18T07:16:05;99644.41;;;20.62;100.00
15634;BME280;14654;48.898;8.308;2023-09-18T07:18:31;99648.66;;;20.64;100.00
15634;BME280;14654;48.898;8.308;2023-09-18T07:20:56;99646.69;;;20.68;100.00
15634;BME280;14654;48.898;8.308;2023-09-18T07:23:22;99640.47;;;20.69;100.00
15634;BME280;14654;48.898;8.308;2023-09-18T07:25:48;99646.56;;;20.69;100.00
15634;BME280;14654;48.898;8.308;2023-09-18T07:28:13;99653.53;;;20.70;100.00
15634;BME280;14654;48.898;8.308;2023-09-18T07:30:43;99649.97;;;20.71;100.00
15634;BME280;14654;48.898;8.308;2023-09-18T07:33:09;99653.34;;;20.74;100.00
15634;BME280;14654;48.898;8.308;2023-09-18T07:35:35;99649.78;;;20.75;100.00
15634;BME280;14654;48.898;8.308;2023-09-18T07:38:00;99651.53;;;20.74;100.00
15634;BME280;14654;48.898;8.308;2023-09-18T07:40:26;99652.59;;;20.71;100.00
15634;BME280;14654;48.898;8.308;2023-09-18T07:42:51;99637.75;;;20.70;100.00
15634;BME280;14654;48.898;8.308;2023-09-18T07:45:16;99633.53;;;20.68;100.00
15634;BME280;14654;48.898;8.308;2023-09-18T07:47:43;99643.41;;;20.64;100.00
15634;BME280;14654;48.898;8.308;2023-09-18T07:50:08;99643.41;;;20.64;100.00
15634;BME280;14654;48.898;8.308;2023-09-18T07:52:34;99652.94;;;20.65;100.00
15634;BME280;14654;48.898;8.308;2023-09-18T07:54:59;99650.31;;;20.65;100.00
15634;BME280;14654;48.898;8.308;2023-09-18T07:57:25;99655.31;;;20.70;100.00
15634;BME280;14654;48.898;8.308;2023-09-18T07:59:53;99662.16;;;20.73;100.00
15634;BME280;14654;48.898;8.308;2023-09-18T08:02:19;99656.75;;;20.76;100.00
15634;BME280;14654;48.898;8.308;2023-09-18T08:04:44;99661.84;;;20.79;100.00
15634;BME280;14654;48.898;8.308;2023-09-18T08:07:10;99653.66;;;20.83;100.00
15634;BME280;14654;48.898;8.308;2023-09-18T08:09:35;99642.19;;;20.84;100.00
15634;BME280;14654;48.898;8.308;2023-09-18T08:12:05;99637.59;;;20.88;100.00
15634;BME280;14654;48.898;8.308;2023-09-18T08:14:31;99620.88;;;20.89;100.00
15634;BME280;14654;48.898;8.308;2023-09-18T08:16:57;99612.88;;;20.91;100.00
15634;BME280;14654;48.898;8.308;2023-09-18T08:19:23;99609.22;;;20.93;100.00
15634;BME280;14654;48.898;8.308;2023-09-18T08:21:48;99637.94;;;20.96;100.00
15634;BME280;14654;48.898;8.308;2023-09-18T08:24:14;99628.16;;;20.98;100.00
15634;BME280;14654;48.898;8.308;2023-09-18T08:26:39;99599.16;;;21.00;100.00
15634;BME280;14654;48.898;8.308;2023-09-18T08:29:04;99593.66;;;21.03;100.00
15634;BME280;14654;48.898;8.308;2023-09-18T08:31:30;99605.88;;;21.04;100.00
15634;BME280;14654;48.898;8.308;2023-09-18T08:33:57;99624.28;;;21.04;100.00
15634;BME280;14654;48.898;8.308;2023-09-18T08:36:22;99629.56;;;21.04;100.00
15634;BME280;14654;48.898;8.308;2023-09-18T08:38:47;99631.38;;;21.04;100.00
15634;BME280;14654;48.898;8.308;2023-09-18T08:41:13;99609.25;;;21.06;100.00
15634;BME280;14654;48.898;8.308;2023-09-18T08:43:41;99610.78;;;21.10;100.00
15634;BME280;14654;48.898;8.308;2023-09-18T08:46:08;99611.31;;;21.15;100.00
15634;BME280;14654;48.898;8.308;2023-09-18T08:48:34;99619.75;;;21.21;100.00
15634;BME280;14654;48.898;8.308;2023-09-18T08:51:04;99618.63;;;21.25;100.00
15634;BME280;14654;48.898;8.308;2023-09-18T08:53:31;99614.84;;;21.29;100.00
15634;BME280;14654;48.898;8.308;2023-09-18T08:55:57;99620.00;;;21.30;100.00
15634;BME280;14654;48.898;8.308;2023-09-18T08:58:25;99626.22;;;21.29;100.00
15634;BME280;14654;48.898;8.308;2023-09-18T09:00:51;99635.91;;;21.29;100.00
15634;BME280;14654;48.898;8.308;2023-09-18T09:03:17;99653.38;;;21.30;100.00
15634;BME280;14654;48.898;8.308;2023-09-18T09:05:43;99664.19;;;21.25;100.00
15634;BME280;14654;48.898;8.308;2023-09-18T09:08:08;99665.16;;;21.24;100.00
15634;BME280;14654;48.898;8.308;2023-09-18T09:10:33;99668.63;;;21.25;100.00
15634;BME280;14654;48.898;8.308;2023-09-18T09:12:59;99673.88;;;21.25;100.00
15634;BME280;14654;48.898;8.308;2023-09-18T09:15:28;99687.22;;;21.22;100.00
15634;BME280;14654;48.898;8.308;2023-09-18T09:18:05;99689.03;;;21.21;100.00
15634;BME280;14654;48.898;8.308;2023-09-18T09:20:31;99689.97;;;21.20;100.00
15634;BME280;14654;48.898;8.308;2023-09-18T09:23:02;99676.69;;;21.22;100.00
15634;BME280;14654;48.898;8.308;2023-09-18T09:25:29;99673.13;;;21.23;100.00
15634;BME280;14654;48.898;8.308;2023-09-18T09:28:03;99667.88;;;21.23;100.00
15634;BME280;14654;48.898;8.308;2023-09-18T09:30:30;99659.78;;;21.26;100.00
15634;BME280;14654;48.898;8.308;2023-09-18T09:32:58;99653.38;;;21.30;100.00
15634;BME280;14654;48.898;8.308;2023-09-18T09:35:26;99654.97;;;21.32;100.00
15634;BME280;14654;48.898;8.308;2023-09-18T09:37:55;99645.00;;;21.38;100.00
15634;BME280;14654;48.898;8.308;2023-09-18T09:40:22;99645.75;;;21.40;100.00
15634;BME280;14654;48.898;8.308;2023-09-18T09:42:50;99656.72;;;21.46;100.00
15634;BME280;14654;48.898;8.308;2023-09-18T09:45:16;99654.91;;;21.47;100.00
15634;BME280;14654;48.898;8.308;2023-09-18T09:47:42;99652.84;;;21.52;100.00
15634;BME280;14654;48.898;8.308;2023-09-18T09:50:10;99658.09;;;21.52;100.00
15634;BME280;14654;48.898;8.308;2023-09-18T09:52:44;99653.38;;;21.57;100.00
15634;BME280;14654;48.898;8.308;2023-09-18T09:55:30;99660.06;;;21.63;100.00
15634;BME280;14654;48.898;8.308;2023-09-18T09:58:06;99660.72;;;21.67;100.00
15634;BME280;14654;48.898;8.308;2023-09-18T10:00:39;99660.31;;;21.73;100.00
15634;BME280;14654;48.898;8.308;2023-09-18T10:03:12;99663.16;;;21.70;100.00
15634;BME280;14654;48.898;8.308;2023-09-18T10:05:42;99669.88;;;21.74;100.00
15634;BME280;14654;48.898;8.308;2023-09-18T10:10:47;99699.31;;;21.81;100.00
15634;BME280;14654;48.898;8.308;2023-09-18T10:13:19;99690.66;;;21.78;100.00
15634;BME280;14654;48.898;8.308;2023-09-18T10:15:48;99661.69;;;21.78;100.00
15634;BME280;14654;48.898;8.308;2023-09-18T10:18:21;99675.59;;;21.81;100.00
15634;BME280;14654;48.898;8.308;2023-09-18T10:20:51;99676.97;;;21.86;100.00
15634;BME280;14654;48.898;8.308;2023-09-18T10:24:44;99675.63;;;21.93;100.00
15634;BME280;14654;48.898;8.308;2023-09-18T10:26:43;99676.63;;;22.05;100.00
15634;BME280;14654;48.898;8.308;2023-09-18T10:29:13;99670.72;;;22.15;100.00
15634;BME280;14654;48.898;8.308;2023-09-18T10:31:39;99673.03;;;22.19;100.00
15634;BME280;14654;48.898;8.308;2023-09-18T10:34:08;99674.84;;;22.32;100.00
15634;BME280;14654;48.898;8.308;2023-09-18T10:36:36;99675.00;;;22.43;100.00
15634;BME280;14654;48.898;8.308;2023-09-18T10:39:03;99667.50;;;22.50;100.00
15634;BME280;14654;48.898;8.308;2023-09-18T10:41:33;99666.25;;;22.56;100.00
15634;BME280;14654;48.898;8.308;2023-09-18T10:44:00;99656.94;;;22.63;100.00
15634;BME280;14654;48.898;8.308;2023-09-18T10:46:27;99655.56;;;22.70;100.00
15634;BME280;14654;48.898;8.308;2023-09-18T10:48:53;99655.38;;;22.73;100.00
15634;BME280;14654;48.898;8.308;2023-09-18T10:51:21;99654.91;;;22.79;100.00
15634;BME280;14654;48.898;8.308;2023-09-18T10:53:50;99651.88;;;22.86;100.00
15634;BME280;14654;48.898;8.308;2023-09-18T10:56:19;99669.13;;;23.03;100.00
15634;BME280;14654;48.898;8.308;2023-09-18T10:58:45;99670.06;;;23.14;100.00
15634;BME280;14654;48.898;8.308;2023-09-18T11:01:13;99678.41;;;23.21;100.00
15634;BME280;14654;48.898;8.308;2023-09-18T11:03:39;99681.56;;;23.26;99.47
15634;BME280;14654;48.898;8.308;2023-09-18T11:06:07;99674.03;;;23.33;99.11
15634;BME280;14654;48.898;8.308;2023-09-18T11:08:43;99666.31;;;23.43;98.65
15634;BME280;14654;48.898;8.308;2023-09-18T11:11:10;99658.78;;;23.50;97.41
15634;BME280;14654;48.898;8.308;2023-09-18T11:13:40;99674.28;;;23.54;97.83
15634;BME280;14654;48.898;8.308;2023-09-18T11:21:27;99668.13;;;23.78;97.12
15634;BME280;14654;48.898;8.308;2023-09-18T11:26:28;99675.56;;;23.97;95.69
15634;BME280;14654;48.898;8.308;2023-09-18T11:28:54;99662.09;;;24.00;94.38
15634;BME280;14654;48.898;8.308;2023-09-18T11:31:19;99678.69;;;24.02;94.54
15634;BME280;14654;48.898;8.308;2023-09-18T11:33:47;99673.63;;;23.99;93.72
15634;BME280;14654;48.898;8.308;2023-09-18T11:36:14;99683.91;;;23.91;91.73
15634;BME280;14654;48.898;8.308;2023-09-18T11:38:59;99675.41;;;24.23;92.65
15634;BME280;14654;48.898;8.308;2023-09-18T11:41:30;99680.97;;;24.43;91.75
15634;BME280;14654;48.898;8.308;2023-09-18T11:46:48;99679.38;;;24.29;90.43
15634;BME280;14654;48.898;8.308;2023-09-18T11:49:19;99669.25;;;24.23;90.76
15634;BME280;14654;48.898;8.308;2023-09-18T11:51:47;99660.72;;;24.30;91.18
15634;BME280;14654;48.898;8.308;2023-09-18T11:54:13;99665.81;;;24.45;91.02
15634;BME280;14654;48.898;8.308;2023-09-18T11:56:40;99661.97;;;24.49;89.65
15634;BME280;14654;48.898;8.308;2023-09-18T11:59:05;99663.66;;;24.50;88.17
15634;BME280;14654;48.898;8.308;2023-09-18T12:01:32;99659.41;;;24.36;88.79
15634;BME280;14654;48.898;8.308;2023-09-18T12:04:02;99664.47;;;24.50;88.94
15634;BME280;14654;48.898;8.308;2023-09-18T12:06:33;99660.41;;;24.46;88.83
15634;BME280;14654;48.898;8.308;2023-09-18T12:08:58;99667.13;;;24.50;88.50
15634;BME280;14654;48.898;8.308;2023-09-18T12:11:23;99661.84;;;24.50;88.27
15634;BME280;14654;48.898;8.308;2023-09-18T12:13:52;99653.44;;;24.57;87.83
15634;BME280;14654;48.898;8.308;2023-09-18T12:16:18;99658.50;;;24.48;87.60
15634;BME280;14654;48.898;8.308;2023-09-18T12:18:47;99644.66;;;24.68;88.12
15634;BME280;14654;48.898;8.308;2023-09-18T12:21:14;99650.31;;;24.63;87.90
15634;BME280;14654;48.898;8.308;2023-09-18T12:23:41;99645.63;;;24.66;87.90
15634;BME280;14654;48.898;8.308;2023-09-18T12:26:11;99650.78;;;24.68;88.12
15634;BME280;14654;48.898;8.308;2023-09-18T12:28:38;99649.81;;;24.69;87.14
15634;BME280;14654;48.898;8.308;2023-09-18T12:31:04;99653.13;;;24.84;87.48
15634;BME280;14654;48.898;8.308;2023-09-18T12:33:37;99661.84;;;24.96;88.20
15634;BME280;14654;48.898;8.308;2023-09-18T12:36:03;99655.38;;;24.89;87.33
15634;BME280;14654;48.898;8.308;2023-09-18T12:38:30;99657.97;;;25.11;87.43
15634;BME280;14654;48.898;8.308;2023-09-18T12:40:56;99650.41;;;25.07;85.93
15634;BME280;14654;48.898;8.308;2023-09-18T12:43:29;99651.38;;;25.17;86.54
15634;BME280;14654;48.898;8.308;2023-09-18T12:45:56;99649.56;;;25.18;86.78
15634;BME280;14654;48.898;8.308;2023-09-18T12:48:22;99645.22;;;25.17;85.78
15634;BME280;14654;48.898;8.308;2023-09-18T12:50:52;99642.34;;;25.20;86.19
15634;BME280;14654;48.898;8.308;2023-09-18T12:53:22;99642.31;;;25.31;87.13
15634;BME280;14654;48.898;8.308;2023-09-18T12:55:48;99638.06;;;25.40;86.23
15634;BME280;14654;48.898;8.308;2023-09-18T12:58:13;99639.00;;;25.62;86.12
15634;BME280;14654;48.898;8.308;2023-09-18T13:00:47;99633.50;;;25.75;85.77
15634;BME280;14654;48.898;8.308;2023-09-18T13:03:14;99644.88;;;25.86;85.52
15634;BME280;14654;48.898;8.308;2023-09-18T13:05:40;99634.63;;;25.93;85.50
15634;BME280;14654;48.898;8.308;2023-09-18T13:08:05;99620.53;;;25.93;85.01
15634;BME280;14654;48.898;8.308;2023-09-18T13:13:16;99625.94;;;25.91;85.40